Estación Meteorológica Peña el Pijo (Robertgarden) [ 01/30/23 15:22:38 CET ]

Fecha Hora Presion(HPa) Temp (°C) Humedad % Rocio (°C) Viento ( m/s) Direccion Lluvia 1Hora(mm) Lluvia 24H(mm) LLuvia Total(mm)
2012-May-17 01:01:13 1013.300 13.3 68 7.5         158.50
2012-May-17 02:01:14 1013.300 12.6 74 8.1         158.50
2012-May-17 03:10:30 1012.800 12.4 76 8.3         158.50
2012-May-17 04:04:10 1012.400 11.5 77 7.6         158.50
2012-May-17 05:01:13 1011.900 11.1 81 8.0         158.50
2012-May-17 06:01:13 1011.600 9.9 82 6.9         158.50
2012-May-17 07:01:14 1011.200 9.4 84 6.8         158.50
2012-May-17 08:01:16 1011.100 11.3 84 8.7         158.50
2012-May-17 09:01:14 1011.100 16.8 68 10.9         158.50
2012-May-17 10:01:16 1010.700 21.1 54 11.4         158.50
2012-May-17 11:01:13 1010.300 24.6 44 11.5         158.50
2012-May-17 12:01:14 1010.100 27.4 39 12.2         158.50
2012-May-17 13:01:14 1009.600 29.1 35 12.0         158.50
2012-May-17 14:01:13 1009.200 29.9 34 12.3         158.50
2012-May-17 15:01:18 1008.600 32.9 30 13.1 0.8 NE     158.50
2012-May-17 16:01:13 1008.200 33.8 19 6.8 1.1 SW     158.50
2012-May-17 17:01:16 1007.800 32.4 18 4.7 0.7 SSE     158.50
2012-May-17 18:01:18 1007.700 31.9 17 3.3         158.50
2012-May-17 19:01:16 1007.600 28.9 20 3.7         158.50
2012-May-17 20:01:12 1007.700 27.0 21 2.8         158.50
2012-May-17 21:01:12 1007.900 24.1 30 5.5         158.50
2012-May-17 22:01:19 1007.700 20.9 39 6.4         158.50
2012-May-17 23:01:14 1007.700 19.5 45 7.2         158.50

Temperatura Máxima:33°    Temperatura Mínima:
Presión Máxima:1013.300 Hpa    Presión Mínima:1007.600 Hpa


Volver